Blue Star 2 — SYSV — position and weather

sailwx.info

Track history (hours):
 
Tides and Currents Weather Stations Pressure Air Temp Water Temp Dewpoint Dewpoint Depression Visibility Wind Speed Wind Dir Waves Ship Positions

Blue Star 2

Last reported at 2018-Feb-23 20:36 UTC. Time now 2018-Feb-24 15:32 UTC.
Position N 37°35' E 023°43'.

Length 176.1 m; beam 25.7 m; draft 6.5 m.

Type: Passenger vessel. MMSI: 239737000.

Date/timePositionNaut miles runAvg speedWind from/ knotsBaromVisibWave heightAir tempDewpointWater temp
2018-Feb-23 20:36N 37°35' E 023°43'218.6
2018-Feb-23 20:30N 37°37' E 023°43'918.6
2018-Feb-23 20:01N 37°46' E 023°39'917.7
2018-Feb-23 19:31N 37°55' E 023°37'2 4.6
2018-Feb-23 19:00N 37°57' E 023°38'0 0.0
2018-Feb-23 18:30N 37°57' E 023°38'0 0.0
2018-Feb-23 18:00N 37°57' E 023°38'0 0.0
2018-Feb-23 17:30N 37°57' E 023°38'0 0.0
2018-Feb-23 17:00N 37°57' E 023°38'0 0.0
2018-Feb-23 16:30N 37°57' E 023°38'0 0.0
2018-Feb-23 16:00N 37°57' E 023°38'0 0.0
2018-Feb-23 15:31N 37°57' E 023°38'0 0.0
2018-Feb-23 15:01N 37°57' E 023°38'0 0.0
2018-Feb-23 14:31N 37°57' E 023°38'0 0.0
2018-Feb-23 14:01N 37°57' E 023°38'0 0.0
2018-Feb-23 13:31N 37°57' E 023°38'0 0.0
2018-Feb-23 13:01N 37°57' E 023°38'0 0.0
2018-Feb-23 12:31N 37°57' E 023°38'0 0.0
2018-Feb-23 12:01N 37°57' E 023°38'0 0.0
2018-Feb-23 10:56N 37°57' E 023°38'0 0.0
2018-Feb-23 10:30N 37°57' E 023°38'0 0.0
2018-Feb-23 10:00N 37°57' E 023°38'0 0.0
2018-Feb-23 09:30N 37°57' E 023°38'0 0.0
2018-Feb-23 09:00N 37°57' E 023°38'0 0.0
2018-Feb-23 08:30N 37°57' E 023°38'0 0.0
2018-Feb-23 08:00N 37°57' E 023°38'0 0.0
2018-Feb-23 07:30N 37°57' E 023°38'0 0.0
2018-Feb-23 07:00N 37°57' E 023°38'0 0.0
2018-Feb-23 06:30N 37°57' E 023°38'0 0.0
2018-Feb-23 06:00N 37°57' E 023°38'0 0.0
2018-Feb-23 05:30N 37°57' E 023°38'0 0.0
2018-Feb-23 05:00N 37°57' E 023°38'0 0.0
2018-Feb-23 04:30N 37°57' E 023°38'0 0.0
2018-Feb-23 04:00N 37°57' E 023°38'0 0.0
2018-Feb-23 03:30N 37°57' E 023°38'0 0.0
2018-Feb-23 03:00N 37°57' E 023°38'0 0.0
2018-Feb-23 02:30N 37°57' E 023°38'0 0.0
2018-Feb-23 02:00N 37°57' E 023°38'0 0.0
2018-Feb-23 01:30N 37°57' E 023°38'0 0.0
2018-Feb-23 01:00N 37°57' E 023°38'0 0.0
2018-Feb-23 00:30N 37°57' E 023°38'0 0.0
2018-Feb-23 00:00N 37°57' E 023°38'0 0.0
2018-Feb-22 23:30N 37°57' E 023°38'0 0.0
2018-Feb-22 23:00N 37°57' E 023°38'0 0.0
2018-Feb-22 22:30N 37°57' E 023°38'0 0.0
2018-Feb-22 22:00N 37°57' E 023°38'0 0.0
2018-Feb-22 21:31N 37°57' E 023°38'1 3.0
2018-Feb-22 21:00N 37°56' E 023°37'1020.7
2018-Feb-22 20:30N 37°46' E 023°42'5725.1
2018-Feb-22 18:14N 37°19' E 024°45'32 4.7
2018-Feb-22 11:24N 36°59' E 025°17'9 4.6
2018-Feb-22 09:25N 37°05' E 025°08'2124.1
2018-Feb-22 08:33N 37°18' E 024°47'4824.5
2018-Feb-22 06:36N 37°37' E 023°52'223.5
2018-Feb-22 06:30N 37°37' E 023°49'1123.2
2018-Feb-22 06:01N 37°46' E 023°39'1121.6
2018-Feb-22 05:31N 37°56' E 023°37'0 0.4
2018-Feb-22 05:00N 37°56' E 023°38'0 0.0
2018-Feb-22 04:30N 37°56' E 023°38'0 0.0
2018-Feb-22 04:00N 37°56' E 023°38'0 0.0
2018-Feb-22 03:30N 37°56' E 023°38'0 0.0
2018-Feb-22 03:00N 37°56' E 023°38'0 0.0
2018-Feb-22 02:30N 37°56' E 023°38'0 0.0
2018-Feb-22 02:00N 37°56' E 023°38'0 0.0
2018-Feb-22 01:30N 37°56' E 023°38'0 0.0
2018-Feb-22 01:00N 37°56' E 023°38'0 0.0
2018-Feb-22 00:30N 37°56' E 023°38'0 0.0
2018-Feb-22 00:00N 37°56' E 023°38'0 0.0
2018-Feb-21 23:30N 37°56' E 023°38'0 0.0
2018-Feb-21 23:00N 37°56' E 023°38'0 0.0
2018-Feb-21 22:30N 37°56' E 023°38'0 0.0
2018-Feb-21 22:00N 37°56' E 023°38'0 0.0
2018-Feb-21 21:30N 37°56' E 023°38'0 0.0
2018-Feb-21 21:01N 37°56' E 023°38'1020.2
2018-Feb-21 20:31N 37°47' E 023°42'1324.9
2018-Feb-21 20:00N 37°38' E 023°53'1726.0
2018-Feb-21 19:22N 37°32' E 024°12'2925.4
2018-Feb-21 18:13N 37°19' E 024°45'526.2
2018-Feb-21 18:01N 37°16' E 024°51'1325.9
2018-Feb-21 17:31N 37°08' E 025°04'4 6.9
2018-Feb-21 16:52N 37°05' E 025°08'618.0
2018-Feb-21 16:31N 37°10' E 025°13'7 7.6
2018-Feb-21 15:34N 37°04' E 025°18'125.3
2018-Feb-21 15:31N 37°03' E 025°18'4 0.9
2018-Feb-21 11:20N 36°59' E 025°17'723.3
2018-Feb-21 11:00N 37°06' E 025°20'2 4.6
2018-Feb-21 10:31N 37°08' E 025°20'1019.5
2018-Feb-21 10:00N 37°05' E 025°08'1 0.9
2018-Feb-21 09:24N 37°05' E 025°08'922.2
2018-Feb-21 09:01N 37°10' E 024°60'1325.6
2018-Feb-21 08:31N 37°18' E 024°47'4724.7
2018-Feb-21 06:37N 37°36' E 023°53'325.5
2018-Feb-21 06:30N 37°37' E 023°49'1224.0
2018-Feb-21 06:01N 37°46' E 023°39'1021.0
2018-Feb-21 05:31N 37°56' E 023°37'0 0.7
2018-Feb-21 05:00N 37°56' E 023°38'0 0.0
2018-Feb-21 04:30N 37°56' E 023°38'0 0.0
2018-Feb-21 04:00N 37°56' E 023°38'0 0.0
2018-Feb-21 03:30N 37°56' E 023°38'0 0.0
2018-Feb-21 03:00N 37°56' E 023°38'0 0.0
2018-Feb-21 02:31N 37°56' E 023°38'0 0.0
2018-Feb-21 02:00N 37°56' E 023°38'0 0.0
2018-Feb-21 01:30N 37°56' E 023°38'0 0.0
2018-Feb-21 01:00N 37°56' E 023°38'0 0.0
2018-Feb-21 00:30N 37°56' E 023°38'0 0.0
2018-Feb-21 00:00N 37°56' E 023°38'0 0.0
2018-Feb-20 23:30N 37°56' E 023°38'0 0.0
2018-Feb-20 23:00N 37°56' E 023°38'0 0.0
2018-Feb-20 22:31N 37°56' E 023°38'0 0.0
2018-Feb-20 22:00N 37°56' E 023°38'0 0.0
2018-Feb-20 21:30N 37°56' E 023°38'0 0.1
2018-Feb-20 21:00N 37°56' E 023°38'1121.4
2018-Feb-20 20:31N 37°46' E 023°42'2925.0
2018-Feb-20 19:21N 37°31' E 024°13'2825.3
2018-Feb-20 18:13N 37°19' E 024°45'626.3
2018-Feb-20 18:01N 37°15' E 024°51'1325.9
2018-Feb-20 17:31N 37°08' E 025°04'4 5.4
2018-Feb-20 16:45N 37°05' E 025°08'416.2
2018-Feb-20 16:29N 37°09' E 025°11'919.5
2018-Feb-20 16:01N 37°06' E 025°22'1 1.4
2018-Feb-20 15:31N 37°06' E 025°21'8 1.9
2018-Feb-20 11:21N 36°59' E 025°17'822.9
2018-Feb-20 11:00N 37°06' E 025°21'3 6.3
2018-Feb-20 10:31N 37°09' E 025°19'1019.5
2018-Feb-20 10:00N 37°05' E 025°08'1 0.8
2018-Feb-20 09:22N 37°05' E 025°08'821.8
2018-Feb-20 09:01N 37°10' E 025°00'1325.5
2018-Feb-20 08:31N 37°18' E 024°48'4924.8
2018-Feb-20 06:33N 37°36' E 023°51'125.8
2018-Feb-20 06:30N 37°37' E 023°50'1224.1
2018-Feb-20 06:01N 37°46' E 023°40'1121.7
2018-Feb-20 05:31N 37°56' E 023°37'0 0.4
2018-Feb-20 05:00N 37°56' E 023°38'0 0.0
2018-Feb-20 04:30N 37°56' E 023°38'0 0.0
2018-Feb-20 04:00N 37°56' E 023°38'0 0.0
2018-Feb-20 03:30N 37°56' E 023°38'0 0.0
2018-Feb-20 03:00N 37°56' E 023°38'0 0.0
2018-Feb-20 02:30N 37°56' E 023°38'0 0.0
2018-Feb-20 02:00N 37°56' E 023°38'0 0.0
2018-Feb-20 01:30N 37°56' E 023°38'0 0.0
2018-Feb-20 01:00N 37°56' E 023°38'0 0.0
2018-Feb-20 00:30N 37°56' E 023°38'0 0.0
2018-Feb-20 00:00N 37°56' E 023°38'0 0.0
2018-Feb-19 23:30N 37°56' E 023°38'0 0.0
2018-Feb-19 23:00N 37°56' E 023°38'0 0.0
2018-Feb-19 22:30N 37°56' E 023°38'0 0.0
2018-Feb-19 22:00N 37°56' E 023°38'0 0.0
2018-Feb-19 21:30N 37°56' E 023°38'0 1.0
2018-Feb-19 21:01N 37°56' E 023°37'1223.2
2018-Feb-19 20:31N 37°45' E 023°42'1424.5
2018-Feb-19 19:55N 37°37' E 023°56'1425.7
2018-Feb-19 19:22N 37°32' E 024°13'2925.3
2018-Feb-19 18:14N 37°19' E 024°45'626.1
2018-Feb-19 18:01N 37°16' E 024°52'1325.7
2018-Feb-19 17:31N 37°08' E 025°04'4 7.2
2018-Feb-19 16:56N 37°05' E 025°08'818.7
2018-Feb-19 16:31N 37°10' E 025°16'612.2
2018-Feb-19 16:00N 37°06' E 025°22'713.1
2018-Feb-19 15:31N 37°01' E 025°17'2 0.6
2018-Feb-19 11:22N 36°59' E 025°19'720.9
2018-Feb-19 11:00N 37°06' E 025°21'3 6.2
2018-Feb-19 10:31N 37°09' E 025°19'1019.0
2018-Feb-19 10:00N 37°05' E 025°08'0 0.7
2018-Feb-19 09:20N 37°05' E 025°08'721.0
2018-Feb-19 09:01N 37°09' E 025°02'1325.9
2018-Feb-19 08:31N 37°17' E 024°49'4925.1
2018-Feb-19 06:33N 37°36' E 023°52'125.8
2018-Feb-19 06:30N 37°37' E 023°50'1223.7
2018-Feb-19 06:00N 37°45' E 023°40'1122.8
2018-Feb-19 05:31N 37°56' E 023°37'0 0.6
2018-Feb-19 05:00N 37°56' E 023°38'0 0.0
2018-Feb-19 04:30N 37°56' E 023°38'0 0.0
2018-Feb-19 04:00N 37°56' E 023°38'0 0.0
2018-Feb-19 03:30N 37°56' E 023°38'0 0.0
2018-Feb-19 03:00N 37°56' E 023°38'0 0.0
2018-Feb-19 02:30N 37°56' E 023°38'0 0.0
2018-Feb-19 02:00N 37°56' E 023°38'0 0.0
2018-Feb-19 01:30N 37°56' E 023°38'0 0.0
2018-Feb-19 01:00N 37°56' E 023°38'0 0.0
2018-Feb-19 00:30N 37°56' E 023°38'0 0.0
2018-Feb-19 00:00N 37°56' E 023°38'0 0.0
2018-Feb-18 23:30N 37°56' E 023°38'0 0.0
2018-Feb-18 23:00N 37°56' E 023°38'0 0.0
2018-Feb-18 22:30N 37°56' E 023°38'0 0.0
2018-Feb-18 22:00N 37°56' E 023°38'0 0.0
2018-Feb-18 21:30N 37°56' E 023°38'0 0.1
2018-Feb-18 21:00N 37°56' E 023°38'1020.3
2018-Feb-18 20:31N 37°47' E 023°42'1224.8
2018-Feb-18 20:00N 37°38' E 023°53'5425.6
2018-Feb-18 17:53N 37°14' E 024°54'1025.9
2018-Feb-18 17:31N 37°08' E 025°04'6 5.8
2018-Feb-18 16:29N 37°09' E 025°11'919.4
2018-Feb-18 16:00N 37°06' E 025°22'1 1.1
2018-Feb-18 15:30N 37°06' E 025°21'8 1.9
2018-Feb-18 11:20N 36°59' E 025°17'823.3
2018-Feb-18 11:00N 37°06' E 025°21'3 5.3
2018-Feb-18 10:31N 37°09' E 025°19'1020.3
2018-Feb-18 10:01N 37°05' E 025°07'1 2.1
2018-Feb-18 09:24N 37°05' E 025°09'717.9
2018-Feb-18 09:01N 37°09' E 025°02'6225.0
2018-Feb-18 06:32N 37°37' E 023°52'125.4
2018-Feb-18 06:30N 37°37' E 023°51'1223.8
2018-Feb-18 06:01N 37°45' E 023°40'1223.1
2018-Feb-18 05:31N 37°56' E 023°37'0 0.8
2018-Feb-18 05:00N 37°56' E 023°37'0 0.0
2018-Feb-18 04:30N 37°56' E 023°37'0 0.0
2018-Feb-18 04:00N 37°56' E 023°37'0 0.0
2018-Feb-18 03:30N 37°56' E 023°37'0 0.0
2018-Feb-18 03:00N 37°56' E 023°37'0 0.0
2018-Feb-18 02:30N 37°56' E 023°37'0 0.0
2018-Feb-18 02:00N 37°56' E 023°37'0 0.0
2018-Feb-18 01:30N 37°56' E 023°37'0 0.0
2018-Feb-18 01:01N 37°56' E 023°37'0 0.0
2018-Feb-18 00:30N 37°56' E 023°37'0 0.0
2018-Feb-18 00:00N 37°56' E 023°37'0 0.0
2018-Feb-17 23:30N 37°56' E 023°37'0 0.0
2018-Feb-17 23:00N 37°56' E 023°37'0 0.0
2018-Feb-17 22:30N 37°56' E 023°37'0 0.0
2018-Feb-17 22:00N 37°56' E 023°37'0 0.0
2018-Feb-17 21:30N 37°56' E 023°37'0 0.4
2018-Feb-17 21:00N 37°56' E 023°37'1122.7
2018-Feb-17 20:31N 37°46' E 023°42'1224.8
2018-Feb-17 20:00N 37°38' E 023°54'1625.9
2018-Feb-17 19:23N 37°31' E 024°13'2825.1
2018-Feb-17 18:15N 37°19' E 024°45'626.1
2018-Feb-17 18:01N 37°15' E 024°52'1325.6
2018-Feb-17 17:31N 37°08' E 025°05'4 7.0
2018-Feb-17 16:55N 37°05' E 025°09'410.2
2018-Feb-17 16:30N 37°09' E 025°11'918.4
2018-Feb-17 16:00N 37°06' E 025°22'4 8.7
2018-Feb-17 15:31N 37°04' E 025°18'4 1.2
2018-Feb-17 11:40N 36°59' E 025°19'425.7
2018-Feb-17 11:31N 37°03' E 025°18'5 9.8
2018-Feb-17 11:01N 37°06' E 025°22'4 8.4
2018-Feb-17 10:31N 37°09' E 025°19'1019.2
2018-Feb-17 10:00N 37°05' E 025°08'0 0.9
2018-Feb-17 09:30N 37°05' E 025°07'1224.3
2018-Feb-17 09:00N 37°13' E 024°56'5624.9
2018-Feb-17 06:46N 37°37' E 023°52'725.7
2018-Feb-17 06:31N 37°39' E 023°44'1325.4
2018-Feb-17 06:01N 37°50' E 023°37'612.3
2018-Feb-17 05:30N 37°56' E 023°38'0 0.0
2018-Feb-17 05:00N 37°56' E 023°38'0 0.0
2018-Feb-17 04:30N 37°56' E 023°38'0 0.0
2018-Feb-17 04:00N 37°56' E 023°38'0 0.0
2018-Feb-17 03:30N 37°56' E 023°38'0 0.0
2018-Feb-17 03:00N 37°56' E 023°38'0 0.0
2018-Feb-17 02:30N 37°56' E 023°38'0 0.0
2018-Feb-17 02:00N 37°56' E 023°38'0 0.0
2018-Feb-17 01:30N 37°56' E 023°38'0 0.0
2018-Feb-17 01:00N 37°56' E 023°38'0 0.0
2018-Feb-17 00:30N 37°56' E 023°38'0 0.0
2018-Feb-17 00:00N 37°56' E 023°38'0 0.0
2018-Feb-16 23:30N 37°56' E 023°38'0 0.0
2018-Feb-16 23:00N 37°56' E 023°38'0 0.0
2018-Feb-16 22:30N 37°56' E 023°38'0 0.0
2018-Feb-16 22:00N 37°56' E 023°38'1 3.0
2018-Feb-16 21:31N 37°55' E 023°37'1225.0
2018-Feb-16 21:01N 37°44' E 023°44'6424.4
2018-Feb-16 18:23N 37°09' E 024°52'1025.1
2018-Feb-16 18:01N 37°07' E 025°04'4 8.6
2018-Feb-16 17:30N 37°05' E 025°08'917.5
2018-Feb-16 16:59N 37°10' E 025°18'511.0
2018-Feb-16 16:30N 37°06' E 025°22'713.2
2018-Feb-16 16:01N 37°01' E 025°17'2 0.6
2018-Feb-16 11:35N 36°59' E 025°19'225.3
2018-Feb-16 11:30N 37°01' E 025°19'612.2
2018-Feb-16 11:00N 37°06' E 025°22'5 9.4
2018-Feb-16 10:31N 37°10' E 025°18'917.5
2018-Feb-16 09:59N 37°05' E 025°08'1 2.2
2018-Feb-16 09:30N 37°06' E 025°07'1224.6
2018-Feb-16 09:01N 37°13' E 024°55'5624.6
2018-Feb-16 06:44N 37°37' E 023°51'625.5
2018-Feb-16 06:31N 37°39' E 023°44'1325.1
2018-Feb-16 06:00N 37°50' E 023°37'612.8
2018-Feb-16 05:31N 37°56' E 023°38'0 0.0
2018-Feb-16 05:01N 37°56' E 023°38'0 0.0
2018-Feb-16 04:31N 37°56' E 023°38'0 0.0
2018-Feb-16 04:01N 37°56' E 023°38'0 0.0
2018-Feb-16 03:31N 37°56' E 023°38'0 0.0
2018-Feb-16 03:01N 37°56' E 023°38'0 0.0
2018-Feb-16 02:31N 37°56' E 023°38'0 0.0
2018-Feb-16 02:01N 37°56' E 023°38'0 0.0
2018-Feb-16 01:31N 37°56' E 023°38'0 0.0
2018-Feb-16 01:01N 37°56' E 023°38'0 0.0
2018-Feb-16 00:31N 37°56' E 023°38'0 0.0
2018-Feb-16 00:00N 37°56' E 023°38'0 0.0
2018-Feb-15 23:31N 37°56' E 023°38'0 0.0
2018-Feb-15 23:00N 37°56' E 023°38'0 0.0
2018-Feb-15 22:31N 37°56' E 023°38'0 0.0
2018-Feb-15 22:00N 37°56' E 023°38'0 0.0
2018-Feb-15 21:31N 37°56' E 023°38'0 0.1
2018-Feb-15 21:01N 37°56' E 023°38'1020.9
2018-Feb-15 20:31N 37°46' E 023°41'1224.0
2018-Feb-15 20:00N 37°39' E 023°53'1725.7
2018-Feb-15 19:21N 37°32' E 024°12'2925.5
2018-Feb-15 18:13N 37°19' E 024°45'526.1
2018-Feb-15 18:01N 37°16' E 024°51'1326.0
2018-Feb-15 17:31N 37°08' E 025°04'5 7.1
2018-Feb-15 16:52N 37°05' E 025°08'720.2
2018-Feb-15 16:31N 37°10' E 025°15'714.0
2018-Feb-15 16:00N 37°06' E 025°22'715.0
2018-Feb-15 15:31N 37°00' E 025°17'1 0.2
2018-Feb-15 11:25N 36°59' E 025°17'819.8
2018-Feb-15 11:01N 37°06' E 025°22'3 6.3
2018-Feb-15 10:30N 37°09' E 025°19'1020.4
2018-Feb-15 10:00N 37°06' E 025°07'1 1.1
2018-Feb-15 09:29N 37°05' E 025°08'1123.0
2018-Feb-15 09:01N 37°12' E 024°58'1224.9
2018-Feb-15 08:30N 37°20' E 024°45'5424.6
2018-Feb-15 06:18N 37°41' E 023°42'725.3
2018-Feb-15 06:00N 37°47' E 023°38'918.3
2018-Feb-15 05:30N 37°56' E 023°38'0 0.0
2018-Feb-15 04:58N 37°56' E 023°38'0 0.0
2018-Feb-15 04:30N 37°56' E 023°38'0 0.0
2018-Feb-15 03:47N 37°56' E 023°38'0 0.0
2018-Feb-15 03:30N 37°56' E 023°38'0 0.0
2018-Feb-15 02:59N 37°56' E 023°38'0 0.0
2018-Feb-15 02:30N 37°56' E 023°38'0 0.0
2018-Feb-15 01:58N 37°56' E 023°38'0 0.0
2018-Feb-15 01:30N 37°56' E 023°38'0 0.0
2018-Feb-15 01:00N 37°56' E 023°38'0 0.0
2018-Feb-15 00:30N 37°56' E 023°38'0 0.0
2018-Feb-15 00:00N 37°56' E 023°38'0 0.0
2018-Feb-14 23:30N 37°56' E 023°38'0 0.0
2018-Feb-14 23:00N 37°56' E 023°38'0 0.0
2018-Feb-14 22:30N 37°56' E 023°38'0 0.0
2018-Feb-14 22:00N 37°56' E 023°38'2 3.7
2018-Feb-14 21:31N 37°55' E 023°37'1325.4
2018-Feb-14 21:00N 37°43' E 023°44'5225.0
2018-Feb-14 18:55N 37°22' E 024°44'1125.4
2018-Feb-14 18:31N 37°15' E 024°54'1325.0
2018-Feb-14 18:00N 37°07' E 025°06'2 3.4
2018-Feb-14 17:23N 37°05' E 025°08'617.0
2018-Feb-14 17:01N 37°10' E 025°13'815.8
2018-Feb-14 16:30N 37°06' E 025°22'3 6.9
2018-Feb-14 16:00N 37°04' E 025°19'5 1.2
2018-Feb-14 11:33N 36°59' E 025°17'124.7
2018-Feb-14 11:31N 37°00' E 025°17'714.8
2018-Feb-14 11:00N 37°06' E 025°22'713.5
2018-Feb-14 10:31N 37°10' E 025°16'8 8.7
2018-Feb-14 09:37N 37°05' E 025°08'113.2
2018-Feb-14 09:31N 37°06' E 025°07'1224.9
2018-Feb-14 09:01N 37°14' E 024°55'5424.4
2018-Feb-14 06:49N 37°36' E 023°53'825.8
2018-Feb-14 06:30N 37°39' E 023°44'1225.0
2018-Feb-14 06:00N 37°50' E 023°37'612.1
2018-Feb-14 05:30N 37°56' E 023°37'0 0.0
2018-Feb-14 05:00N 37°56' E 023°37'0 0.0
2018-Feb-14 04:30N 37°56' E 023°37'0 0.0
2018-Feb-14 04:00N 37°56' E 023°37'0 0.0
2018-Feb-14 03:30N 37°56' E 023°37'0 0.0
2018-Feb-14 03:00N 37°56' E 023°37'0 0.0
2018-Feb-14 02:30N 37°56' E 023°37'0 0.0
2018-Feb-14 02:00N 37°56' E 023°37'0 0.0
2018-Feb-14 01:30N 37°56' E 023°37'0 0.0
2018-Feb-14 01:00N 37°56' E 023°37'0 0.0
2018-Feb-14 00:30N 37°56' E 023°37'0 0.0
2018-Feb-14 00:00N 37°56' E 023°37'0 0.0
2018-Feb-13 23:30N 37°56' E 023°37'0 0.0
2018-Feb-13 23:00N 37°56' E 023°37'0 0.0
2018-Feb-13 22:31N 37°56' E 023°37'0 0.0
2018-Feb-13 22:01N 37°56' E 023°37'0 0.0
2018-Feb-13 21:30N 37°56' E 023°37'1 1.8
2018-Feb-13 21:00N 37°56' E 023°37'  
Track history (hours):
 
Tides and Currents Weather Stations Pressure Air Temp Water Temp Dewpoint Dewpoint Depression Visibility Wind Speed Wind Dir Waves Ship Positions

Blue Star 2

Last reported at 2018-Feb-23 20:36 UTC. Time now 2018-Feb-24 15:32 UTC.
Position N 37°35' E 023°43'.

Length 176.1 m; beam 25.7 m; draft 6.5 m.

Type: Passenger vessel. MMSI: 239737000.

Date/timePositionNaut miles runAvg speedWind from/ knotsBaromVisibWave heightAir tempDewpointWater temp
2018-Feb-23 20:36N 37°35' E 023°43'218.6
2018-Feb-23 20:30N 37°37' E 023°43'918.6
2018-Feb-23 20:01N 37°46' E 023°39'917.7
2018-Feb-23 19:31N 37°55' E 023°37'2 4.6
2018-Feb-23 19:00N 37°57' E 023°38'0 0.0
2018-Feb-23 18:30N 37°57' E 023°38'0 0.0
2018-Feb-23 18:00N 37°57' E 023°38'0 0.0
2018-Feb-23 17:30N 37°57' E 023°38'0 0.0
2018-Feb-23 17:00N 37°57' E 023°38'0 0.0
2018-Feb-23 16:30N 37°57' E 023°38'0 0.0
2018-Feb-23 16:00N 37°57' E 023°38'0 0.0
2018-Feb-23 15:31N 37°57' E 023°38'0 0.0
2018-Feb-23 15:01N 37°57' E 023°38'0 0.0
2018-Feb-23 14:31N 37°57' E 023°38'0 0.0
2018-Feb-23 14:01N 37°57' E 023°38'0 0.0
2018-Feb-23 13:31N 37°57' E 023°38'0 0.0
2018-Feb-23 13:01N 37°57' E 023°38'0 0.0
2018-Feb-23 12:31N 37°57' E 023°38'0 0.0
2018-Feb-23 12:01N 37°57' E 023°38'0 0.0
2018-Feb-23 10:56N 37°57' E 023°38'0 0.0
2018-Feb-23 10:30N 37°57' E 023°38'0 0.0
2018-Feb-23 10:00N 37°57' E 023°38'0 0.0
2018-Feb-23 09:30N 37°57' E 023°38'0 0.0
2018-Feb-23 09:00N 37°57' E 023°38'0 0.0
2018-Feb-23 08:30N 37°57' E 023°38'0 0.0
2018-Feb-23 08:00N 37°57' E 023°38'0 0.0
2018-Feb-23 07:30N 37°57' E 023°38'0 0.0
2018-Feb-23 07:00N 37°57' E 023°38'0 0.0
2018-Feb-23 06:30N 37°57' E 023°38'0 0.0
2018-Feb-23 06:00N 37°57' E 023°38'0 0.0
2018-Feb-23 05:30N 37°57' E 023°38'0 0.0
2018-Feb-23 05:00N 37°57' E 023°38'0 0.0
2018-Feb-23 04:30N 37°57' E 023°38'0 0.0
2018-Feb-23 04:00N 37°57' E 023°38'0 0.0
2018-Feb-23 03:30N 37°57' E 023°38'0 0.0
2018-Feb-23 03:00N 37°57' E 023°38'0 0.0
2018-Feb-23 02:30N 37°57' E 023°38'0 0.0
2018-Feb-23 02:00N 37°57' E 023°38'0 0.0
2018-Feb-23 01:30N 37°57' E 023°38'0 0.0
2018-Feb-23 01:00N 37°57' E 023°38'0 0.0
2018-Feb-23 00:30N 37°57' E 023°38'0 0.0
2018-Feb-23 00:00N 37°57' E 023°38'0 0.0
2018-Feb-22 23:30N 37°57' E 023°38'0 0.0
2018-Feb-22 23:00N 37°57' E 023°38'0 0.0
2018-Feb-22 22:30N 37°57' E 023°38'0 0.0
2018-Feb-22 22:00N 37°57' E 023°38'0 0.0
2018-Feb-22 21:31N 37°57' E 023°38'1 3.0
2018-Feb-22 21:00N 37°56' E 023°37'1020.7
2018-Feb-22 20:30N 37°46' E 023°42'5725.1
2018-Feb-22 18:14N 37°19' E 024°45'32 4.7
2018-Feb-22 11:24N 36°59' E 025°17'9 4.6
2018-Feb-22 09:25N 37°05' E 025°08'2124.1
2018-Feb-22 08:33N 37°18' E 024°47'4824.5
2018-Feb-22 06:36N 37°37' E 023°52'223.5
2018-Feb-22 06:30N 37°37' E 023°49'1123.2
2018-Feb-22 06:01N 37°46' E 023°39'1121.6
2018-Feb-22 05:31N 37°56' E 023°37'0 0.4
2018-Feb-22 05:00N 37°56' E 023°38'0 0.0
2018-Feb-22 04:30N 37°56' E 023°38'0 0.0
2018-Feb-22 04:00N 37°56' E 023°38'0 0.0
2018-Feb-22 03:30N 37°56' E 023°38'0 0.0
2018-Feb-22 03:00N 37°56' E 023°38'0 0.0
2018-Feb-22 02:30N 37°56' E 023°38'0 0.0
2018-Feb-22 02:00N 37°56' E 023°38'0 0.0
2018-Feb-22 01:30N 37°56' E 023°38'0 0.0
2018-Feb-22 01:00N 37°56' E 023°38'0 0.0
2018-Feb-22 00:30N 37°56' E 023°38'0 0.0
2018-Feb-22 00:00N 37°56' E 023°38'0 0.0
2018-Feb-21 23:30N 37°56' E 023°38'0 0.0
2018-Feb-21 23:00N 37°56' E 023°38'0 0.0
2018-Feb-21 22:30N 37°56' E 023°38'0 0.0
2018-Feb-21 22:00N 37°56' E 023°38'0 0.0
2018-Feb-21 21:30N 37°56' E 023°38'0 0.0
2018-Feb-21 21:01N 37°56' E 023°38'1020.2
2018-Feb-21 20:31N 37°47' E 023°42'1324.9
2018-Feb-21 20:00N 37°38' E 023°53'1726.0
2018-Feb-21 19:22N 37°32' E 024°12'2925.4
2018-Feb-21 18:13N 37°19' E 024°45'526.2
2018-Feb-21 18:01N 37°16' E 024°51'1325.9
2018-Feb-21 17:31N 37°08' E 025°04'4 6.9
2018-Feb-21 16:52N 37°05' E 025°08'618.0
2018-Feb-21 16:31N 37°10' E 025°13'7 7.6
2018-Feb-21 15:34N 37°04' E 025°18'125.3
2018-Feb-21 15:31N 37°03' E 025°18'4 0.9
2018-Feb-21 11:20N 36°59' E 025°17'723.3
2018-Feb-21 11:00N 37°06' E 025°20'2 4.6
2018-Feb-21 10:31N 37°08' E 025°20'1019.5
2018-Feb-21 10:00N 37°05' E 025°08'1 0.9
2018-Feb-21 09:24N 37°05' E 025°08'922.2
2018-Feb-21 09:01N 37°10' E 024°60'1325.6
2018-Feb-21 08:31N 37°18' E 024°47'4724.7
2018-Feb-21 06:37N 37°36' E 023°53'325.5
2018-Feb-21 06:30N 37°37' E 023°49'1224.0
2018-Feb-21 06:01N 37°46' E 023°39'1021.0
2018-Feb-21 05:31N 37°56' E 023°37'0 0.7
2018-Feb-21 05:00N 37°56' E 023°38'0 0.0
2018-Feb-21 04:30N 37°56' E 023°38'0 0.0
2018-Feb-21 04:00N 37°56' E 023°38'0 0.0
2018-Feb-21 03:30N 37°56' E 023°38'0 0.0
2018-Feb-21 03:00N 37°56' E 023°38'0 0.0
2018-Feb-21 02:31N 37°56' E 023°38'0 0.0
2018-Feb-21 02:00N 37°56' E 023°38'0 0.0
2018-Feb-21 01:30N 37°56' E 023°38'0 0.0
2018-Feb-21 01:00N 37°56' E 023°38'0 0.0
2018-Feb-21 00:30N 37°56' E 023°38'0 0.0
2018-Feb-21 00:00N 37°56' E 023°38'0 0.0
2018-Feb-20 23:30N 37°56' E 023°38'0 0.0
2018-Feb-20 23:00N 37°56' E 023°38'0 0.0
2018-Feb-20 22:31N 37°56' E 023°38'0 0.0
2018-Feb-20 22:00N 37°56' E 023°38'0 0.0
2018-Feb-20 21:30N 37°56' E 023°38'0 0.1
2018-Feb-20 21:00N 37°56' E 023°38'1121.4
2018-Feb-20 20:31N 37°46' E 023°42'2925.0
2018-Feb-20 19:21N 37°31' E 024°13'2825.3
2018-Feb-20 18:13N 37°19' E 024°45'626.3
2018-Feb-20 18:01N 37°15' E 024°51'1325.9
2018-Feb-20 17:31N 37°08' E 025°04'4 5.4
2018-Feb-20 16:45N 37°05' E 025°08'416.2
2018-Feb-20 16:29N 37°09' E 025°11'919.5
2018-Feb-20 16:01N 37°06' E 025°22'1 1.4
2018-Feb-20 15:31N 37°06' E 025°21'8 1.9
2018-Feb-20 11:21N 36°59' E 025°17'822.9
2018-Feb-20 11:00N 37°06' E 025°21'3 6.3
2018-Feb-20 10:31N 37°09' E 025°19'1019.5
2018-Feb-20 10:00N 37°05' E 025°08'1 0.8
2018-Feb-20 09:22N 37°05' E 025°08'821.8
2018-Feb-20 09:01N 37°10' E 025°00'1325.5
2018-Feb-20 08:31N 37°18' E 024°48'4924.8
2018-Feb-20 06:33N 37°36' E 023°51'125.8
2018-Feb-20 06:30N 37°37' E 023°50'1224.1
2018-Feb-20 06:01N 37°46' E 023°40'1121.7
2018-Feb-20 05:31N 37°56' E 023°37'0 0.4
2018-Feb-20 05:00N 37°56' E 023°38'0 0.0
2018-Feb-20 04:30N 37°56' E 023°38'0 0.0
2018-Feb-20 04:00N 37°56' E 023°38'0 0.0
2018-Feb-20 03:30N 37°56' E 023°38'0 0.0
2018-Feb-20 03:00N 37°56' E 023°38'0 0.0
2018-Feb-20 02:30N 37°56' E 023°38'0 0.0
2018-Feb-20 02:00N 37°56' E 023°38'0 0.0
2018-Feb-20 01:30N 37°56' E 023°38'0 0.0
2018-Feb-20 01:00N 37°56' E 023°38'0 0.0
2018-Feb-20 00:30N 37°56' E 023°38'0 0.0
2018-Feb-20 00:00N 37°56' E 023°38'0 0.0
2018-Feb-19 23:30N 37°56' E 023°38'0 0.0
2018-Feb-19 23:00N 37°56' E 023°38'0 0.0
2018-Feb-19 22:30N 37°56' E 023°38'0 0.0
2018-Feb-19 22:00N 37°56' E 023°38'0 0.0
2018-Feb-19 21:30N 37°56' E 023°38'0 1.0
2018-Feb-19 21:01N 37°56' E 023°37'1223.2
2018-Feb-19 20:31N 37°45' E 023°42'1424.5
2018-Feb-19 19:55N 37°37' E 023°56'1425.7
2018-Feb-19 19:22N 37°32' E 024°13'2925.3
2018-Feb-19 18:14N 37°19' E 024°45'626.1
2018-Feb-19 18:01N 37°16' E 024°52'1325.7
2018-Feb-19 17:31N 37°08' E 025°04'4 7.2
2018-Feb-19 16:56N 37°05' E 025°08'818.7
2018-Feb-19 16:31N 37°10' E 025°16'612.2
2018-Feb-19 16:00N 37°06' E 025°22'713.1
2018-Feb-19 15:31N 37°01' E 025°17'2 0.6
2018-Feb-19 11:22N 36°59' E 025°19'720.9
2018-Feb-19 11:00N 37°06' E 025°21'3 6.2
2018-Feb-19 10:31N 37°09' E 025°19'1019.0
2018-Feb-19 10:00N 37°05' E 025°08'0 0.7
2018-Feb-19 09:20N 37°05' E 025°08'721.0
2018-Feb-19 09:01N 37°09' E 025°02'1325.9
2018-Feb-19 08:31N 37°17' E 024°49'4925.1
2018-Feb-19 06:33N 37°36' E 023°52'125.8
2018-Feb-19 06:30N 37°37' E 023°50'1223.7
2018-Feb-19 06:00N 37°45' E 023°40'1122.8
2018-Feb-19 05:31N 37°56' E 023°37'0 0.6
2018-Feb-19 05:00N 37°56' E 023°38'0 0.0
2018-Feb-19 04:30N 37°56' E 023°38'0 0.0
2018-Feb-19 04:00N 37°56' E 023°38'0 0.0
2018-Feb-19 03:30N 37°56' E 023°38'0 0.0
2018-Feb-19 03:00N 37°56' E 023°38'0 0.0
2018-Feb-19 02:30N 37°56' E 023°38'0 0.0
2018-Feb-19 02:00N 37°56' E 023°38'0 0.0
2018-Feb-19 01:30N 37°56' E 023°38'0 0.0
2018-Feb-19 01:00N 37°56' E 023°38'0 0.0
2018-Feb-19 00:30N 37°56' E 023°38'0 0.0
2018-Feb-19 00:00N 37°56' E 023°38'0 0.0
2018-Feb-18 23:30N 37°56' E 023°38'0 0.0
2018-Feb-18 23:00N 37°56' E 023°38'0 0.0
2018-Feb-18 22:30N 37°56' E 023°38'0 0.0
2018-Feb-18 22:00N 37°56' E 023°38'0 0.0
2018-Feb-18 21:30N 37°56' E 023°38'0 0.1
2018-Feb-18 21:00N 37°56' E 023°38'1020.3
2018-Feb-18 20:31N 37°47' E 023°42'1224.8
2018-Feb-18 20:00N 37°38' E 023°53'5425.6
2018-Feb-18 17:53N 37°14' E 024°54'1025.9
2018-Feb-18 17:31N 37°08' E 025°04'6 5.8
2018-Feb-18 16:29N 37°09' E 025°11'919.4
2018-Feb-18 16:00N 37°06' E 025°22'1 1.1
2018-Feb-18 15:30N 37°06' E 025°21'8 1.9
2018-Feb-18 11:20N 36°59' E 025°17'823.3
2018-Feb-18 11:00N 37°06' E 025°21'3 5.3
2018-Feb-18 10:31N 37°09' E 025°19'1020.3
2018-Feb-18 10:01N 37°05' E 025°07'1 2.1
2018-Feb-18 09:24N 37°05' E 025°09'717.9
2018-Feb-18 09:01N 37°09' E 025°02'6225.0
2018-Feb-18 06:32N 37°37' E 023°52'125.4
2018-Feb-18 06:30N 37°37' E 023°51'1223.8
2018-Feb-18 06:01N 37°45' E 023°40'1223.1
2018-Feb-18 05:31N 37°56' E 023°37'0 0.8
2018-Feb-18 05:00N 37°56' E 023°37'0 0.0
2018-Feb-18 04:30N 37°56' E 023°37'0 0.0
2018-Feb-18 04:00N 37°56' E 023°37'0 0.0
2018-Feb-18 03:30N 37°56' E 023°37'0 0.0
2018-Feb-18 03:00N 37°56' E 023°37'0 0.0
2018-Feb-18 02:30N 37°56' E 023°37'0 0.0
2018-Feb-18 02:00N 37°56' E 023°37'0 0.0
2018-Feb-18 01:30N 37°56' E 023°37'0 0.0
2018-Feb-18 01:01N 37°56' E 023°37'0 0.0
2018-Feb-18 00:30N 37°56' E 023°37'0 0.0
2018-Feb-18 00:00N 37°56' E 023°37'0 0.0
2018-Feb-17 23:30N 37°56' E 023°37'0 0.0
2018-Feb-17 23:00N 37°56' E 023°37'0 0.0
2018-Feb-17 22:30N 37°56' E 023°37'0 0.0
2018-Feb-17 22:00N 37°56' E 023°37'0 0.0
2018-Feb-17 21:30N 37°56' E 023°37'0 0.4
2018-Feb-17 21:00N 37°56' E 023°37'1122.7
2018-Feb-17 20:31N 37°46' E 023°42'1224.8
2018-Feb-17 20:00N 37°38' E 023°54'1625.9
2018-Feb-17 19:23N 37°31' E 024°13'2825.1
2018-Feb-17 18:15N 37°19' E 024°45'626.1
2018-Feb-17 18:01N 37°15' E 024°52'1325.6
2018-Feb-17 17:31N 37°08' E 025°05'4 7.0
2018-Feb-17 16:55N 37°05' E 025°09'410.2
2018-Feb-17 16:30N 37°09' E 025°11'918.4
2018-Feb-17 16:00N 37°06' E 025°22'4 8.7
2018-Feb-17 15:31N 37°04' E 025°18'4 1.2
2018-Feb-17 11:40N 36°59' E 025°19'425.7
2018-Feb-17 11:31N 37°03' E 025°18'5 9.8
2018-Feb-17 11:01N 37°06' E 025°22'4 8.4
2018-Feb-17 10:31N 37°09' E 025°19'1019.2
2018-Feb-17 10:00N 37°05' E 025°08'0 0.9
2018-Feb-17 09:30N 37°05' E 025°07'1224.3
2018-Feb-17 09:00N 37°13' E 024°56'5624.9
2018-Feb-17 06:46N 37°37' E 023°52'725.7
2018-Feb-17 06:31N 37°39' E 023°44'1325.4
2018-Feb-17 06:01N 37°50' E 023°37'612.3
2018-Feb-17 05:30N 37°56' E 023°38'0 0.0
2018-Feb-17 05:00N 37°56' E 023°38'0 0.0
2018-Feb-17 04:30N 37°56' E 023°38'0 0.0
2018-Feb-17 04:00N 37°56' E 023°38'0 0.0
2018-Feb-17 03:30N 37°56' E 023°38'0 0.0
2018-Feb-17 03:00N 37°56' E 023°38'0 0.0
2018-Feb-17 02:30N 37°56' E 023°38'0 0.0
2018-Feb-17 02:00N 37°56' E 023°38'0 0.0
2018-Feb-17 01:30N 37°56' E 023°38'0 0.0
2018-Feb-17 01:00N 37°56' E 023°38'0 0.0
2018-Feb-17 00:30N 37°56' E 023°38'0 0.0
2018-Feb-17 00:00N 37°56' E 023°38'0 0.0
2018-Feb-16 23:30N 37°56' E 023°38'0 0.0
2018-Feb-16 23:00N 37°56' E 023°38'0 0.0
2018-Feb-16 22:30N 37°56' E 023°38'0 0.0
2018-Feb-16 22:00N 37°56' E 023°38'1 3.0
2018-Feb-16 21:31N 37°55' E 023°37'1225.0
2018-Feb-16 21:01N 37°44' E 023°44'6424.4
2018-Feb-16 18:23N 37°09' E 024°52'1025.1
2018-Feb-16 18:01N 37°07' E 025°04'4 8.6
2018-Feb-16 17:30N 37°05' E 025°08'917.5
2018-Feb-16 16:59N 37°10' E 025°18'511.0
2018-Feb-16 16:30N 37°06' E 025°22'713.2
2018-Feb-16 16:01N 37°01' E 025°17'2 0.6
2018-Feb-16 11:35N 36°59' E 025°19'225.3
2018-Feb-16 11:30N 37°01' E 025°19'612.2
2018-Feb-16 11:00N 37°06' E 025°22'5 9.4
2018-Feb-16 10:31N 37°10' E 025°18'917.5
2018-Feb-16 09:59N 37°05' E 025°08'1 2.2
2018-Feb-16 09:30N 37°06' E 025°07'1224.6
2018-Feb-16 09:01N 37°13' E 024°55'5624.6
2018-Feb-16 06:44N 37°37' E 023°51'625.5
2018-Feb-16 06:31N 37°39' E 023°44'1325.1
2018-Feb-16 06:00N 37°50' E 023°37'612.8
2018-Feb-16 05:31N 37°56' E 023°38'0 0.0
2018-Feb-16 05:01N 37°56' E 023°38'0 0.0
2018-Feb-16 04:31N 37°56' E 023°38'0 0.0
2018-Feb-16 04:01N 37°56' E 023°38'0 0.0
2018-Feb-16 03:31N 37°56' E 023°38'0 0.0
2018-Feb-16 03:01N 37°56' E 023°38'0 0.0
2018-Feb-16 02:31N 37°56' E 023°38'0 0.0
2018-Feb-16 02:01N 37°56' E 023°38'0 0.0
2018-Feb-16 01:31N 37°56' E 023°38'0 0.0
2018-Feb-16 01:01N 37°56' E 023°38'0 0.0
2018-Feb-16 00:31N 37°56' E 023°38'0 0.0
2018-Feb-16 00:00N 37°56' E 023°38'0 0.0
2018-Feb-15 23:31N 37°56' E 023°38'0 0.0
2018-Feb-15 23:00N 37°56' E 023°38'0 0.0
2018-Feb-15 22:31N 37°56' E 023°38'0 0.0
2018-Feb-15 22:00N 37°56' E 023°38'0 0.0
2018-Feb-15 21:31N 37°56' E 023°38'0 0.1
2018-Feb-15 21:01N 37°56' E 023°38'1020.9
2018-Feb-15 20:31N 37°46' E 023°41'1224.0
2018-Feb-15 20:00N 37°39' E 023°53'1725.7
2018-Feb-15 19:21N 37°32' E 024°12'2925.5
2018-Feb-15 18:13N 37°19' E 024°45'526.1
2018-Feb-15 18:01N 37°16' E 024°51'1326.0
2018-Feb-15 17:31N 37°08' E 025°04'5 7.1
2018-Feb-15 16:52N 37°05' E 025°08'720.2
2018-Feb-15 16:31N 37°10' E 025°15'714.0
2018-Feb-15 16:00N 37°06' E 025°22'715.0
2018-Feb-15 15:31N 37°00' E 025°17'1 0.2
2018-Feb-15 11:25N 36°59' E 025°17'819.8
2018-Feb-15 11:01N 37°06' E 025°22'3 6.3
2018-Feb-15 10:30N 37°09' E 025°19'1020.4
2018-Feb-15 10:00N 37°06' E 025°07'1 1.1
2018-Feb-15 09:29N 37°05' E 025°08'1123.0
2018-Feb-15 09:01N 37°12' E 024°58'1224.9
2018-Feb-15 08:30N 37°20' E 024°45'5424.6
2018-Feb-15 06:18N 37°41' E 023°42'725.3
2018-Feb-15 06:00N 37°47' E 023°38'918.3
2018-Feb-15 05:30N 37°56' E 023°38'0 0.0
2018-Feb-15 04:58N 37°56' E 023°38'0 0.0
2018-Feb-15 04:30N 37°56' E 023°38'0 0.0
2018-Feb-15 03:47N 37°56' E 023°38'0 0.0
2018-Feb-15 03:30N 37°56' E 023°38'0 0.0
2018-Feb-15 02:59N 37°56' E 023°38'0 0.0
2018-Feb-15 02:30N 37°56' E 023°38'0 0.0
2018-Feb-15 01:58N 37°56' E 023°38'0 0.0
2018-Feb-15 01:30N 37°56' E 023°38'0 0.0
2018-Feb-15 01:00N 37°56' E 023°38'0 0.0
2018-Feb-15 00:30N 37°56' E 023°38'0 0.0
2018-Feb-15 00:00N 37°56' E 023°38'0 0.0
2018-Feb-14 23:30N 37°56' E 023°38'0 0.0
2018-Feb-14 23:00N 37°56' E 023°38'0 0.0
2018-Feb-14 22:30N 37°56' E 023°38'0 0.0
2018-Feb-14 22:00N 37°56' E 023°38'2 3.7
2018-Feb-14 21:31N 37°55' E 023°37'1325.4
2018-Feb-14 21:00N 37°43' E 023°44'5225.0
2018-Feb-14 18:55N 37°22' E 024°44'1125.4
2018-Feb-14 18:31N 37°15' E 024°54'1325.0
2018-Feb-14 18:00N 37°07' E 025°06'2 3.4
2018-Feb-14 17:23N 37°05' E 025°08'617.0
2018-Feb-14 17:01N 37°10' E 025°13'815.8
2018-Feb-14 16:30N 37°06' E 025°22'3 6.9
2018-Feb-14 16:00N 37°04' E 025°19'5 1.2
2018-Feb-14 11:33N 36°59' E 025°17'124.7
2018-Feb-14 11:31N 37°00' E 025°17'714.8
2018-Feb-14 11:00N 37°06' E 025°22'713.5
2018-Feb-14 10:31N 37°10' E 025°16'8 8.7
2018-Feb-14 09:37N 37°05' E 025°08'113.2
2018-Feb-14 09:31N 37°06' E 025°07'1224.9
2018-Feb-14 09:01N 37°14' E 024°55'5424.4
2018-Feb-14 06:49N 37°36' E 023°53'825.8
2018-Feb-14 06:30N 37°39' E 023°44'1225.0
2018-Feb-14 06:00N 37°50' E 023°37'612.1
2018-Feb-14 05:30N 37°56' E 023°37'0 0.0
2018-Feb-14 05:00N 37°56' E 023°37'0 0.0
2018-Feb-14 04:30N 37°56' E 023°37'0 0.0
2018-Feb-14 04:00N 37°56' E 023°37'0 0.0
2018-Feb-14 03:30N 37°56' E 023°37'0 0.0
2018-Feb-14 03:00N 37°56' E 023°37'0 0.0
2018-Feb-14 02:30N 37°56' E 023°37'0 0.0
2018-Feb-14 02:00N 37°56' E 023°37'0 0.0
2018-Feb-14 01:30N 37°56' E 023°37'0 0.0
2018-Feb-14 01:00N 37°56' E 023°37'0 0.0
2018-Feb-14 00:30N 37°56' E 023°37'0 0.0
2018-Feb-14 00:00N 37°56' E 023°37'0 0.0
2018-Feb-13 23:30N 37°56' E 023°37'0 0.0
2018-Feb-13 23:00N 37°56' E 023°37'0 0.0
2018-Feb-13 22:31N 37°56' E 023°37'0 0.0
2018-Feb-13 22:01N 37°56' E 023°37'0 0.0
2018-Feb-13 21:30N 37°56' E 023°37'1 1.8
2018-Feb-13 21:00N 37°56' E 023°37'  

Dump ship's entire track history